Kimolos, Greece
Current Conditions -  °F | °C
As of 1:50 PM on Thursday 23 Oct 2014 (Local Time) from LGSO Reporting Station
Scattered Clouds Scattered Clouds  
Wind Chill: 72°   Ceiling: Unl
Heat Index: 72°   Visibility: 6mi
Dew Point: 63°   Wind: 20mph
Humidity: 73%   Direction: 200°SSW
Pressure: 29.59"   Gusts: 32mph
Location:  36.79°N, 24.57°E
Report Text: LGSO 231050Z 20017G28KT 9999 FEW018 SCT035 22/17 Q1002
Loading
Personal Weather Stations






























Interactive Weather Map
Tropical Storm Tracking
New forecast layout! Learn more

10-Day Weather Forecast

Advertisements
Track Severe Weather on mobile